Time;durP1;ratioP1;P1;durP2;ratioP2;P2;SDS_P1;SDS_P2;PMS_P1;PMS_P2;Temp;Humidity;BMP_temperature;BMP_pressure;BME280_temperature;BME280_humidity;BME280_pressure;Samples;Min_cycle;Max_cycle;Signal;HPM_P1;HPM_P2
2023/07/01 00:01:39;;;;;;;0.10;0.10;;;15.90;99.90;;;;;;5021255;28;20538;-80
2023/07/01 00:04:05;;;;;;;0.10;0.10;;;15.80;99.90;;;;;;5023166;28;20222;-80
2023/07/01 00:06:31;;;;;;;0.10;0.10;;;15.80;99.90;;;;;;5019795;28;20195;-80
2023/07/01 00:08:56;;;;;;;0.10;0.10;;;15.80;99.90;;;;;;5021588;28;20190;-80
2023/07/01 00:11:23;;;;;;;0.10;0.10;;;15.70;99.90;;;;;;5019717;28;20222;-80
2023/07/01 00:13:48;;;;;;;0.10;0.10;;;15.80;99.90;;;;;;5019930;28;20929;-79
2023/07/01 00:16:14;;;;;;;0.10;0.10;;;15.80;99.90;;;;;;5021739;28;20265;-80
2023/07/01 00:18:41;;;;;;;0.10;0.10;;;15.80;99.90;;;;;;5028141;28;20195;-80
2023/07/01 00:21:06;;;;;;;0.10;0.10;;;15.70;99.90;;;;;;5020422;28;20202;-80
2023/07/01 00:23:32;;;;;;;0.10;0.10;;;15.80;99.90;;;;;;5020057;28;20751;-80
2023/07/01 00:25:58;;;;;;;0.10;0.10;;;15.70;99.90;;;;;;5021256;28;20196;-80
2023/07/01 00:28:24;;;;;;;0.10;0.10;;;15.60;99.90;;;;;;5021991;28;20194;-80
2023/07/01 00:30:49;;;;;;;0.10;0.10;;;15.70;99.90;;;;;;5019152;28;20261;-79
2023/07/01 00:33:15;;;;;;;0.10;0.10;;;15.80;99.90;;;;;;5021527;28;20201;-80
2023/07/01 00:35:40;;;;;;;0.10;0.10;;;15.90;99.90;;;;;;5020357;28;20236;-78
2023/07/01 00:38:06;;;;;;;0.10;0.10;;;15.90;99.90;;;;;;5020447;28;20235;-80
2023/07/01 00:40:31;;;;;;;0.10;0.10;;;15.90;99.90;;;;;;5020810;28;20190;-79
2023/07/01 00:42:57;;;;;;;0.10;0.10;;;16.00;99.90;;;;;;5017848;28;20193;-80
2023/07/01 00:45:23;;;;;;;0.10;0.10;;;16.00;99.90;;;;;;5022939;28;20190;-79
2023/07/01 00:47:48;;;;;;;0.10;0.10;;;16.00;99.90;;;;;;5020903;28;20198;-80
2023/07/01 00:50:14;;;;;;;0.10;0.10;;;16.10;99.90;;;;;;5020922;28;21374;-80
2023/07/01 00:52:41;;;;;;;0.10;0.10;;;16.10;99.90;;;;;;5021174;28;20257;-80
2023/07/01 00:55:09;;;;;;;0.10;0.10;;;16.00;99.90;;;;;;5019993;28;20272;-80
2023/07/01 00:57:35;;;;;;;0.10;0.10;;;15.70;99.90;;;;;;5021768;28;20232;-81
2023/07/01 01:00:10;;;;;;;0.10;0.10;;;15.60;99.90;;;;;;5021544;28;20276;-80
2023/07/01 01:02:53;;;;;;;0.10;0.10;;;15.50;99.90;;;;;;5020685;28;20185;-80
2023/07/01 01:05:27;;;;;;;0.10;0.10;;;15.50;99.90;;;;;;5019314;28;20226;-80
2023/07/01 01:08:19;;;;;;;0.10;0.10;;;15.50;99.90;;;;;;5019460;28;20181;-80
2023/07/01 01:10:47;;;;;;;0.10;0.10;;;15.60;99.90;;;;;;5017708;28;20202;-80
2023/07/01 01:13:15;;;;;;;0.10;0.10;;;15.50;99.90;;;;;;5020788;28;20182;-80
2023/07/01 01:15:42;;;;;;;0.10;0.10;;;15.60;99.90;;;;;;5022372;28;20211;-80
2023/07/01 01:18:10;;;;;;;0.10;0.10;;;15.50;99.90;;;;;;5022502;28;20229;-80
2023/07/01 01:20:39;;;;;;;0.10;0.10;;;15.50;99.90;;;;;;5019839;28;20637;-80
2023/07/01 01:23:13;;;;;;;0.10;0.10;;;15.50;99.90;;;;;;5019359;28;20186;-81
2023/07/01 01:26:01;;;;;;;0.10;0.10;;;15.60;99.90;;;;;;5020434;28;20181;-80
2023/07/01 01:28:27;;;;;;;0.10;0.10;;;15.70;99.90;;;;;;5028606;28;20186;-80
2023/07/01 01:30:52;;;;;;;0.10;0.10;;;15.90;99.90;;;;;;5019835;28;20264;-80
2023/07/01 01:33:18;;;;;;;0.10;0.10;;;16.00;99.90;;;;;;5020067;28;20221;-80
2023/07/01 01:35:44;;;;;;;0.10;0.10;;;16.10;99.90;;;;;;5018172;28;20182;-80
2023/07/01 01:38:23;;;;;;;0.10;0.10;;;16.20;99.90;;;;;;5012716;28;20186;-80
2023/07/01 01:40:56;;;;;;;0.10;0.10;;;16.10;99.90;;;;;;5018414;28;20215;-81
2023/07/01 01:43:42;;;;;;;0.10;0.10;;;15.90;99.90;;;;;;5021510;28;20194;-80
2023/07/01 01:46:08;;;;;;;0.10;0.10;;;15.80;99.90;;;;;;5021295;28;20240;-80
2023/07/01 01:48:35;;;;;;;0.10;0.10;;;15.70;99.90;;;;;;5020383;28;20563;-80
2023/07/01 01:51:03;;;;;;;0.10;0.10;;;15.40;99.90;;;;;;5021397;28;20263;-80
2023/07/01 01:53:29;;;;;;;0.10;0.10;;;15.60;99.90;;;;;;5022375;28;20292;-80
2023/07/01 01:55:55;;;;;;;0.10;0.10;;;15.60;99.90;;;;;;5023604;28;20302;-80
2023/07/01 01:58:22;;;;;;;0.10;0.10;;;15.60;99.90;;;;;;5023663;28;20244;-80
2023/07/01 02:00:47;;;;;;;0.10;0.10;;;15.60;99.90;;;;;;5021504;28;20304;-80
2023/07/01 02:03:13;;;;;;;0.10;0.10;;;15.80;99.90;;;;;;5019231;28;20300;-80
2023/07/01 02:05:39;;;;;;;0.10;0.10;;;16.00;99.90;;;;;;5021243;28;20245;-80
2023/07/01 02:08:05;;;;;;;0.10;0.10;;;16.00;99.90;;;;;;5023941;28;20216;-81
2023/07/01 02:10:32;;;;;;;0.10;0.10;;;16.10;99.90;;;;;;5022461;28;20248;-80
2023/07/01 02:12:58;;;;;;;0.10;0.10;;;16.30;99.90;;;;;;5023227;28;20189;-80
2023/07/01 02:15:23;;;;;;;0.10;0.10;;;16.40;99.90;;;;;;5025030;28;20599;-80
2023/07/01 02:17:49;;;;;;;0.10;0.10;;;16.40;99.90;;;;;;5024784;28;20182;-80
2023/07/01 02:20:14;;;;;;;0.10;0.10;;;16.50;99.90;;;;;;5030992;28;20219;-80
2023/07/01 02:22:40;;;;;;;0.10;0.10;;;16.40;99.90;;;;;;5021023;28;20190;-80
2023/07/01 02:25:06;;;;;;;0.10;0.10;;;16.40;99.90;;;;;;5022071;28;20206;-80
2023/07/01 02:27:32;;;;;;;0.10;0.10;;;16.50;99.90;;;;;;5023970;28;20190;-80
2023/07/01 02:29:58;;;;;;;0.10;0.10;;;16.60;99.90;;;;;;5024574;28;20236;-81
2023/07/01 02:32:25;;;;;;;0.10;0.10;;;16.60;99.90;;;;;;5024103;28;20189;-80
2023/07/01 02:34:51;;;;;;;0.10;0.10;;;16.60;99.90;;;;;;5022307;28;20221;-80
2023/07/01 02:37:16;;;;;;;0.10;0.10;;;16.70;99.90;;;;;;5021718;28;20179;-80
2023/07/01 02:39:44;;;;;;;0.10;0.10;;;16.80;99.90;;;;;;5023471;28;20836;-81
2023/07/01 02:42:10;;;;;;;0.10;0.10;;;16.90;99.90;;;;;;5023134;28;20261;-80
2023/07/01 02:44:35;;;;;;;0.10;0.10;;;16.90;99.90;;;;;;5022722;28;20301;-80
2023/07/01 02:47:01;;;;;;;0.10;0.10;;;17.00;99.90;;;;;;5023077;28;20540;-80
2023/07/01 02:49:27;;;;;;;0.10;0.10;;;17.00;99.90;;;;;;5021388;28;20558;-80
2023/07/01 02:51:52;;;;;;;0.10;0.10;;;17.00;99.90;;;;;;5021163;28;20271;-80
2023/07/01 02:54:18;;;;;;;0.10;0.10;;;17.10;99.90;;;;;;5023153;28;20607;-80
2023/07/01 02:56:43;;;;;;;0.10;0.10;;;17.20;99.90;;;;;;5021214;28;20182;-81
2023/07/01 02:59:10;;;;;;;0.10;0.10;;;17.20;99.90;;;;;;5021758;28;20679;-80
2023/07/01 03:01:35;;;;;;;0.10;0.10;;;17.20;99.90;;;;;;5022377;28;20217;-80
2023/07/01 03:04:01;;;;;;;0.10;0.10;;;17.20;99.90;;;;;;5021087;28;20233;-80
2023/07/01 03:06:26;;;;;;;0.10;0.10;;;17.10;99.90;;;;;;5023432;28;20660;-81
2023/07/01 03:08:52;;;;;;;0.10;0.10;;;17.10;99.90;;;;;;5024293;28;20556;-81
2023/07/01 03:11:17;;;;;;;0.10;0.10;;;17.10;99.90;;;;;;5021266;28;20657;-80
2023/07/01 03:13:43;;;;;;;0.10;0.10;;;17.10;99.90;;;;;;5021078;28;20199;-80
2023/07/01 03:16:09;;;;;;;0.10;0.10;;;17.10;99.90;;;;;;5024380;28;20640;-80
2023/07/01 03:18:35;;;;;;;0.10;0.10;;;17.10;99.90;;;;;;5020441;28;20269;-80
2023/07/01 03:21:01;;;;;;;0.10;0.10;;;17.10;99.90;;;;;;5020981;28;20190;-80
2023/07/01 03:23:27;;;;;;;0.10;0.10;;;17.10;99.90;;;;;;5022348;28;20302;-80
2023/07/01 03:25:52;;;;;;;0.10;0.10;;;17.00;99.90;;;;;;5022712;28;20178;-80
2023/07/01 03:28:18;;;;;;;0.10;0.10;;;16.80;99.90;;;;;;5020820;28;20187;-80
2023/07/01 03:30:43;;;;;;;0.10;0.10;;;16.90;99.90;;;;;;5022709;28;20598;-80
2023/07/01 03:33:12;;;;;;;0.10;0.10;;;16.90;99.90;;;;;;5022571;28;20644;-80
2023/07/01 03:35:38;;;;;;;0.10;0.10;;;16.90;99.90;;;;;;5021352;28;20577;-80
2023/07/01 03:38:04;;;;;;;0.10;0.10;;;17.00;99.90;;;;;;5018661;28;20216;-80
2023/07/01 03:40:29;;;;;;;0.10;0.10;;;17.00;99.90;;;;;;5021226;28;20214;-80
2023/07/01 03:42:55;;;;;;;0.10;0.10;;;17.00;99.90;;;;;;5020397;28;20188;-80
2023/07/01 03:45:21;;;;;;;0.10;0.10;;;17.00;99.90;;;;;;5031644;28;20687;-80
2023/07/01 03:47:47;;;;;;;0.10;0.10;;;17.00;99.90;;;;;;5021074;28;20207;-80
2023/07/01 03:50:13;;;;;;;0.10;0.10;;;17.00;99.90;;;;;;5020184;28;20211;-80
2023/07/01 03:52:40;;;;;;;0.10;0.10;;;17.10;99.90;;;;;;5021778;28;20175;-80
2023/07/01 03:55:07;;;;;;;0.10;0.10;;;17.20;99.90;;;;;;5021154;28;20205;-80
2023/07/01 03:57:34;;;;;;;0.10;0.10;;;17.20;99.90;;;;;;5019834;28;20281;-80
2023/07/01 04:00:00;;;;;;;0.10;0.10;;;17.30;99.90;;;;;;5021193;28;20179;-80
2023/07/01 04:02:25;;;;;;;0.10;0.10;;;17.40;99.90;;;;;;5020799;28;20182;-80
2023/07/01 04:04:51;;;;;;;0.10;0.10;;;17.30;99.90;;;;;;5019990;28;20206;-80
2023/07/01 04:07:21;;;;;;;0.10;0.10;;;17.30;99.90;;;;;;5020493;28;20190;-80
2023/07/01 04:09:49;;;;;;;0.10;0.10;;;17.40;99.90;;;;;;5022572;28;20189;-80
2023/07/01 04:12:18;;;;;;;0.10;0.10;;;17.20;99.90;;;;;;5021338;28;20182;-81
2023/07/01 04:14:44;;;;;;;0.10;0.10;;;17.30;99.90;;;;;;5023574;28;20280;-80
2023/07/01 04:17:09;;;;;;;0.10;0.10;;;17.40;99.90;;;;;;5022797;28;20274;-80
2023/07/01 04:19:35;;;;;;;0.10;0.10;;;17.50;99.90;;;;;;5021753;28;20195;-80
2023/07/01 04:22:01;;;;;;;0.10;0.10;;;17.50;99.90;;;;;;5019923;28;20190;-81
2023/07/01 04:24:26;;;;;;;0.10;0.10;;;17.50;99.90;;;;;;5017937;28;20210;-81
2023/07/01 04:26:52;;;;;;;0.10;0.10;;;17.50;99.90;;;;;;5015754;28;20198;-81
2023/07/01 04:29:17;;;;;;;0.10;0.10;;;17.60;99.90;;;;;;5019126;28;20715;-80
2023/07/01 04:31:43;;;;;;;0.10;0.10;;;17.70;99.90;;;;;;5019782;28;20699;-80
2023/07/01 04:34:08;;;;;;;0.10;0.10;;;17.80;99.90;;;;;;5022295;28;20243;-80
2023/07/01 04:36:34;;;;;;;0.10;0.10;;;18.00;99.90;;;;;;5020805;28;20221;-80
2023/07/01 04:38:59;;;;;;;0.10;0.10;;;18.10;99.90;;;;;;5019610;28;20187;-80
2023/07/01 04:41:25;;;;;;;0.10;0.10;;;18.30;99.90;;;;;;5018470;28;20183;-80
2023/07/01 04:43:50;;;;;;;0.10;0.10;;;18.50;99.90;;;;;;5020165;28;20216;-80
2023/07/01 04:46:16;;;;;;;0.10;0.10;;;18.70;99.90;;;;;;5019685;28;20216;-80
2023/07/01 04:48:41;;;;;;;0.10;0.10;;;18.80;99.90;;;;;;5023177;28;20407;-79
2023/07/01 04:51:07;;;;;;;0.10;0.10;;;19.00;99.90;;;;;;5020741;28;21093;-81
2023/07/01 04:53:32;;;;;;;0.10;0.10;;;19.40;99.90;;;;;;5020055;28;20290;-82
2023/07/01 04:55:58;;;;;;;0.10;0.10;;;19.50;99.90;;;;;;5020019;28;20190;-80
2023/07/01 04:58:23;;;;;;;0.10;0.10;;;19.50;99.90;;;;;;5019345;28;20556;-81
2023/07/01 05:00:50;;;;;;;0.10;0.10;;;19.40;99.90;;;;;;5017020;28;20555;-80
2023/07/01 05:03:15;;;;;;;0.10;0.10;;;19.40;99.90;;;;;;5016939;28;20198;-80
2023/07/01 05:05:41;;;;;;;0.10;0.10;;;19.40;99.90;;;;;;5017436;28;20209;-80
2023/07/01 05:08:06;;;;;;;0.10;0.10;;;19.30;99.90;;;;;;5022373;28;20191;-81
2023/07/01 05:10:32;;;;;;;0.10;0.10;;;19.40;99.90;;;;;;5017093;28;20323;-81
2023/07/01 05:12:57;;;;;;;0.10;0.10;;;19.40;99.90;;;;;;5016196;28;20241;-80
2023/07/01 05:15:23;;;;;;;0.10;0.10;;;19.40;99.90;;;;;;5017448;28;20826;-81
2023/07/01 05:17:48;;;;;;;0.10;0.10;;;19.50;99.90;;;;;;5019215;28;20266;-81
2023/07/01 05:20:14;;;;;;;0.10;0.10;;;19.60;99.90;;;;;;5020476;28;20197;-81
2023/07/01 05:22:39;;;;;;;0.10;0.10;;;19.60;99.90;;;;;;5021504;28;20187;-81
2023/07/01 05:25:05;;;;;;;0.10;0.10;;;19.60;99.90;;;;;;5023302;28;20214;-81
2023/07/01 05:27:31;;;;;;;0.10;0.10;;;19.70;99.90;;;;;;5020228;28;20189;-80
2023/07/01 05:30:00;;;;;;;0.10;0.10;;;19.70;99.90;;;;;;5024336;28;20273;-81
2023/07/01 05:32:25;;;;;;;0.10;0.10;;;19.80;99.90;;;;;;5022247;28;20187;-81
2023/07/01 05:34:51;;;;;;;0.10;0.10;;;19.90;99.90;;;;;;5023996;28;20266;-81
2023/07/01 05:37:16;;;;;;;0.10;0.10;;;20.00;99.90;;;;;;5022733;28;20656;-81
2023/07/01 05:39:42;;;;;;;0.10;0.10;;;19.90;99.90;;;;;;5022519;28;20193;-81
2023/07/01 05:42:08;;;;;;;0.10;0.10;;;19.90;99.90;;;;;;5022192;28;20181;-81
2023/07/01 05:44:33;;;;;;;0.10;0.10;;;19.90;99.90;;;;;;5025002;28;20198;-81
2023/07/01 05:46:59;;;;;;;0.10;0.10;;;20.10;99.90;;;;;;5022298;28;20178;-81
2023/07/01 05:49:24;;;;;;;0.10;0.10;;;20.10;99.90;;;;;;5023841;28;20183;-80
2023/07/01 05:51:50;;;;;;;0.10;0.10;;;20.10;99.90;;;;;;5026857;28;20289;-80
2023/07/01 05:54:16;;;;;;;0.10;0.10;;;20.10;99.90;;;;;;5028402;28;20218;-80
2023/07/01 05:56:41;;;;;;;0.10;0.10;;;20.10;99.90;;;;;;5023696;28;20644;-80
2023/07/01 05:59:07;;;;;;;0.10;0.10;;;20.20;99.90;;;;;;5026690;28;20181;-80
2023/07/01 06:01:32;;;;;;;0.10;0.10;;;20.30;99.90;;;;;;5023576;28;20236;-81
2023/07/01 06:03:58;;;;;;;0.10;0.10;;;20.40;99.90;;;;;;5018047;28;20214;-81
2023/07/01 06:06:23;;;;;;;0.10;0.10;;;20.50;99.90;;;;;;5026433;28;20284;-80
2023/07/01 06:08:49;;;;;;;0.10;0.10;;;20.50;99.90;;;;;;5023604;28;20193;-80
2023/07/01 06:11:15;;;;;;;0.10;0.10;;;20.70;99.90;;;;;;5023930;28;20203;-81
2023/07/01 06:13:45;;;;;;;0.10;0.10;;;20.80;99.90;;;;;;5026042;28;20271;-81
2023/07/01 06:16:12;;;;;;;0.10;0.10;;;21.20;99.90;;;;;;5022091;28;20198;-81
2023/07/01 06:18:37;;;;;;;0.10;0.10;;;21.40;99.90;;;;;;5033501;28;20170;-81
2023/07/01 06:21:06;;;;;;;0.10;0.10;;;21.60;99.90;;;;;;5023889;28;20186;-81
2023/07/01 06:23:32;;;;;;;0.10;0.10;;;21.50;99.90;;;;;;5018010;28;20317;-81
2023/07/01 06:25:58;;;;;;;0.10;0.10;;;21.30;99.90;;;;;;5021349;28;20182;-81
2023/07/01 06:28:23;;;;;;;0.10;0.10;;;21.30;99.90;;;;;;5024265;28;20655;-82
2023/07/01 06:30:49;;;;;;;0.10;0.10;;;21.40;99.90;;;;;;5018771;28;20217;-81
2023/07/01 06:33:14;;;;;;;0.10;0.10;;;21.50;99.90;;;;;;5018908;28;20179;-81
2023/07/01 06:35:41;;;;;;;0.10;0.10;;;21.60;99.90;;;;;;5022972;28;20209;-81
2023/07/01 06:38:07;;;;;;;0.10;0.10;;;21.60;99.90;;;;;;5020909;28;20210;-82
2023/07/01 06:40:33;;;;;;;0.10;0.10;;;21.70;99.90;;;;;;5025039;28;20217;-83
2023/07/01 06:42:58;;;;;;;0.10;0.10;;;21.80;99.90;;;;;;5022257;28;20193;-82
2023/07/01 06:45:24;;;;;;;0.10;0.10;;;22.00;99.90;;;;;;5021085;28;20306;-82
2023/07/01 06:47:50;;;;;;;0.10;0.10;;;22.20;99.90;;;;;;5023577;28;20785;-83
2023/07/01 06:50:15;;;;;;;0.10;0.10;;;22.20;99.90;;;;;;5019595;28;20210;-82
2023/07/01 06:52:40;;;;;;;0.10;0.10;;;22.50;99.90;;;;;;5018708;28;20217;-82
2023/07/01 06:55:07;;;;;;;0.10;0.10;;;22.60;99.90;;;;;;5021334;28;20206;-82
2023/07/01 06:57:33;;;;;;;0.10;0.10;;;22.80;99.90;;;;;;5020138;28;20205;-81
2023/07/01 06:59:59;;;;;;;0.10;0.10;;;22.80;99.90;;;;;;5018274;28;20179;-81
2023/07/01 07:02:25;;;;;;;0.10;0.10;;;23.30;99.90;;;;;;5019065;28;20264;-81
2023/07/01 07:04:52;;;;;;;0.10;0.10;;;23.40;99.90;;;;;;5020231;28;20206;-81
2023/07/01 07:07:18;;;;;;;0.40;0.40;;;23.20;99.90;;;;;;5019376;28;20618;-81
2023/07/01 07:09:44;;;;;;;0.10;0.10;;;23.00;99.90;;;;;;5020955;28;20206;-82
2023/07/01 07:12:10;;;;;;;0.10;0.10;;;22.80;99.90;;;;;;5021311;28;20216;-82
2023/07/01 07:14:35;;;;;;;0.10;0.10;;;22.60;99.90;;;;;;5020510;28;20210;-82
2023/07/01 07:17:01;;;;;;;0.10;0.10;;;22.30;99.90;;;;;;5023993;28;20202;-82
2023/07/01 07:19:26;;;;;;;0.10;0.10;;;22.20;99.90;;;;;;5023495;28;20186;-82
2023/07/01 07:21:52;;;;;;;0.10;0.10;;;22.30;99.90;;;;;;5024272;28;21263;-81
2023/07/01 07:24:17;;;;;;;0.10;0.10;;;22.30;99.90;;;;;;5022154;28;20206;-82
2023/07/01 07:26:56;;;;;;;0.10;0.10;;;22.30;99.90;;;;;;5019143;28;20675;-82
2023/07/01 07:29:22;;;;;;;0.10;0.10;;;22.30;99.90;;;;;;5020817;28;20836;-82
2023/07/01 07:31:48;;;;;;;0.10;0.10;;;22.50;99.90;;;;;;5017264;28;20301;-81
2023/07/01 07:34:14;;;;;;;0.10;0.10;;;22.50;99.90;;;;;;5020652;28;21309;-82
2023/07/01 07:36:39;;;;;;;0.10;0.10;;;22.50;99.90;;;;;;5022164;28;20289;-82
2023/07/01 07:39:05;;;;;;;0.10;0.10;;;22.50;99.90;;;;;;5021179;28;20192;-83
2023/07/01 07:41:30;;;;;;;0.10;0.10;;;22.60;99.90;;;;;;5010984;28;20223;-82
2023/07/01 07:43:56;;;;;;;0.10;0.10;;;22.40;99.90;;;;;;5018753;28;20224;-82
2023/07/01 07:46:21;;;;;;;0.10;0.10;;;22.60;99.90;;;;;;5017928;28;20195;-82
2023/07/01 07:48:47;;;;;;;0.10;0.10;;;22.60;99.90;;;;;;5018723;28;20225;-82
2023/07/01 07:51:12;;;;;;;0.10;0.10;;;22.40;99.90;;;;;;5014119;28;20224;-82
2023/07/01 07:53:38;;;;;;;0.10;0.10;;;22.40;99.90;;;;;;5025926;28;20220;-82
2023/07/01 07:56:04;;;;;;;0.10;0.10;;;22.30;99.90;;;;;;5021313;28;20206;-82
2023/07/01 07:58:29;;;;;;;0.10;0.10;;;22.20;99.90;;;;;;5020328;28;20225;-82
2023/07/01 08:00:55;;;;;;;0.10;0.10;;;22.30;99.90;;;;;;5018800;28;20190;-82
2023/07/01 08:03:21;;;;;;;0.10;0.10;;;22.30;99.90;;;;;;5016172;28;20247;-82
2023/07/01 08:05:51;;;;;;;0.10;0.10;;;22.00;99.90;;;;;;5020827;28;20237;-82
2023/07/01 08:08:17;;;;;;;0.10;0.10;;;21.80;99.90;;;;;;5018258;28;20812;-82
2023/07/01 08:10:45;;;;;;;0.10;0.10;;;21.80;99.90;;;;;;5018080;28;20210;-82
2023/07/01 08:13:12;;;;;;;0.10;0.10;;;21.70;99.90;;;;;;5015997;28;20229;-82
2023/07/01 08:15:38;;;;;;;0.10;0.10;;;21.80;99.90;;;;;;5016441;28;20647;-82
2023/07/01 08:18:04;;;;;;;0.10;0.10;;;21.90;99.90;;;;;;5021491;28;20645;-82
2023/07/01 08:20:29;;;;;;;0.10;0.10;;;21.90;99.90;;;;;;5020472;28;20210;-82
2023/07/01 08:22:55;;;;;;;0.10;0.10;;;22.00;99.90;;;;;;5022792;28;20676;-82
2023/07/01 08:25:20;;;;;;;0.10;0.10;;;21.90;99.90;;;;;;5019648;28;20205;-82
2023/07/01 08:27:46;;;;;;;0.10;0.10;;;21.80;99.90;;;;;;5032635;28;20194;-82
2023/07/01 08:30:12;;;;;;;0.10;0.10;;;21.90;99.90;;;;;;5022732;28;20234;-81
2023/07/01 08:32:38;;;;;;;0.10;0.10;;;21.80;99.90;;;;;;5022662;28;20717;-81
2023/07/01 08:35:04;;;;;;;0.10;0.10;;;21.80;99.90;;;;;;5023730;28;20198;-82
2023/07/01 08:37:30;;;;;;;0.10;0.10;;;21.70;99.90;;;;;;5020455;28;20185;-81
2023/07/01 08:39:56;;;;;;;0.10;0.10;;;21.60;99.90;;;;;;5024754;28;20183;-82
2023/07/01 08:42:31;;;;;;;0.10;0.10;;;21.60;99.90;;;;;;5020640;28;20189;-82
2023/07/01 08:44:57;;;;;;;0.10;0.10;;;21.40;99.90;;;;;;5024128;28;20675;-82
2023/07/01 08:47:25;;;;;;;0.10;0.10;;;21.50;99.90;;;;;;5024101;28;20179;-82
2023/07/01 08:49:54;;;;;;;0.10;0.10;;;21.40;99.90;;;;;;5023716;28;20186;-82
2023/07/01 08:52:22;;;;;;;0.10;0.10;;;21.60;99.90;;;;;;5017247;28;20624;-82
2023/07/01 08:54:48;;;;;;;0.10;0.10;;;21.70;99.90;;;;;;5021288;28;20202;-82
2023/07/01 08:57:15;;;;;;;0.20;0.20;;;21.70;99.90;;;;;;5020344;28;20263;-81
2023/07/01 08:59:42;;;;;;;0.10;0.10;;;21.80;99.90;;;;;;5017712;28;20175;-82
2023/07/01 09:02:08;;;;;;;0.10;0.10;;;21.90;99.90;;;;;;5019756;28;20189;-82
2023/07/01 09:04:37;;;;;;;0.10;0.10;;;22.00;99.90;;;;;;5017348;28;20301;-82
2023/07/01 09:07:03;;;;;;;0.20;0.20;;;21.80;99.90;;;;;;5020358;28;20190;-82
2023/07/01 09:09:29;;;;;;;0.10;0.10;;;21.80;99.90;;;;;;5020473;28;20804;-81
2023/07/01 09:11:54;;;;;;;0.20;0.20;;;21.80;99.90;;;;;;5015943;28;20264;-81
2023/07/01 09:14:20;;;;;;;0.10;0.10;;;21.80;99.90;;;;;;5020237;28;20332;-81
2023/07/01 09:16:45;;;;;;;0.10;0.10;;;21.70;99.90;;;;;;5021346;28;20190;-81
2023/07/01 09:19:16;;;;;;;0.10;0.10;;;21.80;99.90;;;;;;5021049;28;20194;-81
2023/07/01 09:21:42;;;;;;;1.17;1.17;;;21.80;99.90;;;;;;5018759;28;21055;-81
2023/07/01 09:24:10;;;;;;;0.10;0.10;;;21.90;99.90;;;;;;5017644;28;20213;-82
2023/07/01 09:26:36;;;;;;;0.10;0.10;;;21.90;99.90;;;;;;5016276;28;20269;-82
2023/07/01 09:29:14;;;;;;;0.10;0.10;;;22.00;99.90;;;;;;5008300;28;20222;-81
2023/07/01 09:31:47;;;;;;;0.10;0.10;;;22.10;99.90;;;;;;5016600;28;20197;-81
2023/07/01 09:34:13;;;;;;;0.10;0.10;;;22.10;99.90;;;;;;5014575;28;20683;-82
2023/07/01 09:36:39;;;;;;;0.10;0.10;;;21.90;99.90;;;;;;5018137;28;20203;-82
2023/07/01 09:39:05;;;;;;;0.10;0.10;;;21.90;99.90;;;;;;5013239;28;20284;-81
2023/07/01 09:41:31;;;;;;;0.10;0.10;;;21.80;99.90;;;;;;5013994;28;20323;-81
2023/07/01 09:43:58;;;;;;;0.10;0.10;;;21.60;99.90;;;;;;5013988;28;20207;-80
2023/07/01 09:46:39;;;;;;;0.10;0.10;;;21.50;99.90;;;;;;5016107;28;20542;-81
2023/07/01 09:49:04;;;;;;;0.10;0.10;;;21.40;99.90;;;;;;5022154;28;20209;-81
2023/07/01 09:51:30;;;;;;;0.10;0.10;;;21.50;99.90;;;;;;5017393;28;21054;-81
2023/07/01 09:53:55;;;;;;;0.10;0.10;;;21.30;99.90;;;;;;5017526;28;20249;-81
2023/07/01 09:56:21;;;;;;;0.10;0.10;;;21.10;99.90;;;;;;5014426;28;20190;-80
2023/07/01 09:58:50;;;;;;;0.10;0.10;;;21.00;99.90;;;;;;5018095;28;20319;-81
2023/07/01 10:01:17;;;;;;;0.10;0.10;;;21.00;99.90;;;;;;5020687;28;20228;-81
2023/07/01 10:03:44;;;;;;;0.10;0.10;;;20.70;99.90;;;;;;5021205;28;20229;-81
2023/07/01 10:06:10;;;;;;;0.10;0.10;;;20.80;99.90;;;;;;5015174;28;20203;-80
2023/07/01 10:08:36;;;;;;;0.10;0.10;;;20.80;99.90;;;;;;5017259;28;20198;-81
2023/07/01 10:11:09;;;;;;;0.10;0.10;;;20.80;99.90;;;;;;5021697;28;20667;-81
2023/07/01 10:13:43;;;;;;;0.10;0.10;;;20.90;99.90;;;;;;5014093;28;20328;-81
2023/07/01 10:16:09;;;;;;;0.10;0.10;;;20.90;99.90;;;;;;5022495;28;20257;-81
2023/07/01 10:18:35;;;;;;;0.10;0.10;;;20.90;99.90;;;;;;5023277;28;20215;-81
2023/07/01 10:21:28;;;;;;;0.10;0.10;;;21.00;99.90;;;;;;5023448;28;20217;-81
2023/07/01 10:24:00;;;;;;;0.10;0.10;;;20.80;99.90;;;;;;5023390;28;20221;-81
2023/07/01 10:26:33;;;;;;;0.10;0.10;;;20.80;99.90;;;;;;5019022;28;20182;-81
2023/07/01 10:29:20;;;;;;;0.10;0.10;;;20.70;99.90;;;;;;5020287;28;20226;-81
2023/07/01 10:32:07;;;;;;;0.10;0.10;;;20.60;99.90;;;;;;5022199;28;20880;-81
2023/07/01 10:34:52;;;;;;;0.10;0.10;;;20.40;99.90;;;;;;5013078;28;20569;-81
2023/07/01 10:37:18;;;;;;;0.10;0.10;;;20.40;99.90;;;;;;5022211;28;20210;-81
2023/07/01 10:39:43;;;;;;;0.10;0.10;;;20.40;99.90;;;;;;5021301;28;20186;-81
2023/07/01 10:42:31;;;;;;;0.10;0.10;;;20.40;99.90;;;;;;5022261;28;20184;-82
2023/07/01 10:45:12;;;;;;;0.10;0.10;;;20.50;99.90;;;;;;5022448;28;20224;-80
2023/07/01 10:47:44;;;;;;;0.10;0.10;;;20.60;99.90;;;;;;5019173;28;20212;-79
2023/07/01 10:50:19;;;;;;;0.10;0.10;;;20.60;99.90;;;;;;5020683;28;20235;-82
2023/07/01 10:52:57;;;;;;;0.10;0.10;;;20.60;99.90;;;;;;5021898;28;20193;-81
2023/07/01 10:55:49;;;;;;;0.10;0.10;;;20.60;99.90;;;;;;5021909;28;20645;-81
2023/07/01 10:58:28;;;;;;;0.10;0.10;;;20.70;99.90;;;;;;5022828;28;20182;-81
2023/07/01 11:00:58;;;;;;;0.10;0.10;;;20.60;99.90;;;;;;5020812;28;20178;-81
2023/07/01 11:03:33;;;;;;;0.10;0.10;;;20.60;99.90;;;;;;5020462;28;20209;-81
2023/07/01 11:05:59;;;;;;;0.10;0.10;;;20.40;99.90;;;;;;5020788;28;20478;-82
2023/07/01 11:08:25;;;;;;;0.10;0.10;;;20.60;99.90;;;;;;5017128;28;20201;-82
2023/07/01 11:10:51;;;;;;;0.10;0.10;;;20.60;99.90;;;;;;5019205;28;20206;-82
2023/07/01 11:13:18;;;;;;;0.10;0.10;;;20.60;99.90;;;;;;5021712;28;20252;-80
2023/07/01 11:16:04;;;;;;;0.10;0.10;;;20.60;99.90;;;;;;5021722;28;20182;-82
2023/07/01 11:18:43;;;;;;;0.10;0.10;;;20.50;99.90;;;;;;5024234;28;20182;-82
2023/07/01 11:21:11;;;;;;;0.10;0.10;;;20.40;99.90;;;;;;5020090;28;20186;-82
2023/07/01 11:23:38;;;;;;;0.10;0.10;;;20.50;99.90;;;;;;5019034;28;20217;-82
2023/07/01 11:26:03;;;;;;;0.10;0.10;;;20.40;99.90;;;;;;5022763;28;20216;-81
2023/07/01 11:28:37;;;;;;;0.10;0.10;;;20.40;99.90;;;;;;5021933;28;20221;-82
2023/07/01 11:31:18;;;;;;;0.10;0.10;;;20.50;99.90;;;;;;5020067;28;20249;-82
2023/07/01 11:33:54;;;;;;;0.10;0.10;;;20.50;99.90;;;;;;5022547;28;20272;-82
2023/07/01 11:36:34;;;;;;;0.10;0.10;;;20.50;99.90;;;;;;5021549;28;20281;-82
2023/07/01 11:39:07;;;;;;;0.10;0.10;;;20.60;99.90;;;;;;5021146;28;20189;-82
2023/07/01 11:41:34;;;;;;;0.10;0.10;;;20.70;99.90;;;;;;5023351;28;20186;-82
2023/07/01 11:43:59;;;;;;;0.10;0.10;;;20.60;99.90;;;;;;5019813;28;21436;-82
2023/07/01 11:46:54;;;;;;;0.10;0.10;;;20.60;99.90;;;;;;5023440;28;20213;-82
2023/07/01 11:49:25;;;;;;;0.10;0.10;;;20.70;99.90;;;;;;5024001;28;20568;-82
2023/07/01 11:51:55;;;;;;;0.10;0.10;;;20.70;99.90;;;;;;5019179;28;20213;-82
2023/07/01 11:54:45;;;;;;;0.10;0.10;;;20.80;99.90;;;;;;5031254;28;20734;-82
2023/07/01 11:57:16;;;;;;;0.10;0.10;;;20.80;99.90;;;;;;5017223;28;20199;-82
2023/07/01 11:59:44;;;;;;;0.10;0.10;;;20.80;99.90;;;;;;5022826;28;20264;-81
2023/07/01 12:02:10;;;;;;;0.10;0.10;;;20.80;99.90;;;;;;5020619;28;20210;-82
2023/07/01 12:04:36;;;;;;;0.10;0.10;;;20.80;99.90;;;;;;5021717;28;20264;-82
2023/07/01 12:07:13;;;;;;;0.10;0.10;;;20.90;99.90;;;;;;5022231;28;20230;-82
2023/07/01 12:09:41;;;;;;;0.10;0.10;;;21.00;99.90;;;;;;5021411;28;20190;-80
2023/07/01 12:12:11;;;;;;;0.10;0.10;;;21.10;99.90;;;;;;5020261;28;20692;-80
2023/07/01 12:14:38;;;;;;;0.10;0.10;;;21.30;99.90;;;;;;5020581;28;20356;-79
2023/07/01 12:17:04;;;;;;;0.10;0.10;;;21.30;99.90;;;;;;5021205;28;20185;-80
2023/07/01 12:19:31;;;;;;;0.10;0.10;;;21.30;99.90;;;;;;5017860;28;20178;-80
2023/07/01 12:21:58;;;;;;;0.10;0.10;;;21.30;99.90;;;;;;5018190;28;20194;-80
2023/07/01 12:24:35;;;;;;;0.10;0.10;;;21.20;99.90;;;;;;5019551;28;20210;-80
2023/07/01 12:27:03;;;;;;;0.10;0.10;;;21.20;99.90;;;;;;5030194;28;21039;-81
2023/07/01 12:29:29;;;;;;;0.10;0.10;;;21.20;99.90;;;;;;5019310;28;20187;-81
2023/07/01 12:31:55;;;;;;;0.10;0.10;;;21.30;99.90;;;;;;5019857;28;20225;-80
2023/07/01 12:34:21;;;;;;;0.10;0.10;;;21.40;99.90;;;;;;5022024;28;20198;-80
2023/07/01 12:36:47;;;;;;;0.10;0.10;;;21.40;99.90;;;;;;5014369;28;20182;-80
2023/07/01 12:39:14;;;;;;;0.10;0.10;;;21.40;99.90;;;;;;5016079;28;20189;-80
2023/07/01 12:41:40;;;;;;;0.10;0.10;;;21.30;99.90;;;;;;5012729;28;20265;-80
2023/07/01 12:44:08;;;;;;;0.10;0.10;;;21.30;99.90;;;;;;5016787;28;20559;-80
2023/07/01 12:46:35;;;;;;;0.10;0.10;;;21.30;99.90;;;;;;5017576;28;20190;-80
2023/07/01 12:49:02;;;;;;;0.10;0.10;;;21.40;99.90;;;;;;5017229;28;20602;-81
2023/07/01 12:51:28;;;;;;;0.10;0.10;;;21.40;99.90;;;;;;5018035;28;20297;-81